Time;durP1;ratioP1;P1;durP2;ratioP2;P2;SDS_P1;SDS_P2;PMS_P1;PMS_P2;Temp;Humidity;BMP_temperature;BMP_pressure;BME280_temperature;BME280_humidity;BME280_pressure;Samples;Min_cycle;Max_cycle;Signal;HPM_P1;HPM_P2
2023/10/12 00:01:27;;;;;;;6.30;5.33;;;;;;;12.30;84.61;95501.19;5089399;28;20286;-42
2023/10/12 00:03:59;;;;;;;9.80;5.60;;;;;;;12.29;84.72;95499.56;5072401;28;20205;-41
2023/10/12 00:06:30;;;;;;;12.77;5.33;;;;;;;12.25;84.69;95499.94;5072441;28;20189;-43
2023/10/12 00:08:57;;;;;;;6.03;5.00;;;;;;;12.23;84.58;95494.94;5073094;28;20190;-43
2023/10/12 00:11:37;;;;;;;6.83;5.33;;;;;;;11.95;84.66;95445.13;5090060;28;20305;-44
2023/10/12 00:14:05;;;;;;;8.03;6.20;;;;;;;12.21;84.68;95496.00;5089482;28;20201;-44
2023/10/12 00:16:32;;;;;;;15.30;6.90;;;;;;;12.15;84.92;95476.00;5092530;28;20185;-42
2023/10/12 00:19:00;;;;;;;7.13;5.50;;;;;;;12.17;85.01;95484.38;5092480;28;20182;-42
2023/10/12 00:21:26;;;;;;;11.33;5.40;;;;;;;12.12;85.16;95481.38;5092356;28;20221;-43
2023/10/12 00:23:56;;;;;;;7.13;5.23;;;;;;;11.89;85.51;95466.16;5076074;28;20190;-42
2023/10/12 00:26:24;;;;;;;8.63;5.63;;;;;;;12.00;85.49;95476.34;5072132;28;20252;-42
2023/10/12 00:28:52;;;;;;;8.93;5.37;;;;;;;11.97;85.45;95479.16;5083658;28;20269;-43
2023/10/12 00:31:19;;;;;;;10.13;5.33;;;;;;;11.85;85.65;95462.22;5072033;28;20647;-44
2023/10/12 00:33:49;;;;;;;7.03;5.60;;;;;;;11.90;85.87;95456.72;5074869;28;20194;-43
2023/10/12 00:36:24;;;;;;;7.10;4.90;;;;;;;11.92;85.65;95463.34;5092052;28;20255;-43
2023/10/12 00:38:53;;;;;;;7.20;5.17;;;;;;;11.91;85.94;95463.47;5076485;28;20190;-44
2023/10/12 00:41:24;;;;;;;14.47;5.53;;;;;;;11.86;85.81;95452.78;5075007;28;20190;-43
2023/10/12 00:44:01;;;;;;;7.50;6.30;;;;;;;11.90;86.04;95460.09;5090370;28;20197;-43
2023/10/12 00:49:17;;;;;;;9.87;6.13;;;;;;;11.82;86.22;95465.00;5069663;28;20276;-43
2023/10/12 00:51:51;;;;;;;7.10;5.90;;;;;;;11.83;86.29;95456.44;5071895;28;20241;-45
2023/10/12 00:54:26;;;;;;;7.60;5.03;;;;;;;11.79;86.47;95455.84;5075069;28;20185;-42
2023/10/12 00:56:59;;;;;;;7.83;5.57;;;;;;;11.76;86.34;95460.41;5082872;28;20717;-41
2023/10/12 00:59:28;;;;;;;9.63;5.97;;;;;;;11.72;86.51;95453.91;5096680;28;20189;-43
2023/10/12 01:01:55;;;;;;;8.13;5.33;;;;;;;11.70;86.56;95456.59;5098408;28;20226;-44
2023/10/12 01:04:22;;;;;;;12.70;7.30;;;;;;;11.51;86.89;95423.97;5091619;28;20720;-43
2023/10/12 01:06:50;;;;;;;14.40;8.23;;;;;;;11.49;87.10;95419.91;5091711;28;20193;-42
2023/10/12 01:09:20;;;;;;;12.87;6.70;;;;;;;11.67;86.82;95445.78;5089411;28;20254;-42
2023/10/12 01:11:53;;;;;;;12.60;6.33;;;;;;;11.71;86.77;95442.84;5073992;28;20236;-42
2023/10/12 01:14:26;;;;;;;6.93;6.13;;;;;;;11.68;86.90;95452.53;5070867;28;20215;-43
2023/10/12 01:16:59;;;;;;;13.17;7.37;;;;;;;11.52;86.90;95427.34;5071684;28;20195;-43
2023/10/12 01:19:30;;;;;;;15.03;8.27;;;;;;;11.46;86.71;95415.84;5071972;28;20931;-43
2023/10/12 01:22:07;;;;;;;11.43;7.00;;;;;;;11.65;86.69;95450.19;5071305;28;20194;-43
2023/10/12 01:24:35;;;;;;;9.17;6.10;;;;;;;11.66;86.76;95442.41;5071141;28;20544;-42
2023/10/12 01:27:02;;;;;;;9.90;7.00;;;;;;;11.64;86.91;95448.59;5071133;28;20194;-43
2023/10/12 01:29:31;;;;;;;11.13;7.27;;;;;;;11.64;86.89;95449.38;5070902;28;20201;-43
2023/10/12 01:34:52;;;;;;;17.30;8.07;;;;;;;11.58;87.02;95447.34;5070385;28;20198;-43
2023/10/12 01:37:25;;;;;;;13.37;7.30;;;;;;;11.59;87.31;95448.97;5070781;28;20198;-45
2023/10/12 01:39:57;;;;;;;11.97;7.30;;;;;;;11.58;86.98;95441.41;5070737;28;20195;-43
2023/10/12 01:42:42;;;;;;;15.97;9.07;;;;;;;11.52;87.04;95445.25;5071015;28;20719;-44
2023/10/12 01:45:18;;;;;;;17.27;8.43;;;;;;;11.46;87.29;95445.78;5072014;28;20182;-43
2023/10/12 01:47:50;;;;;;;16.57;8.93;;;;;;;11.46;86.96;95443.22;5070102;28;20182;-45
2023/10/12 01:50:17;;;;;;;13.97;7.00;;;;;;;11.34;87.21;95427.09;5070681;28;20684;-42
2023/10/12 01:52:47;;;;;;;14.50;7.53;;;;;;;11.37;87.38;95438.84;5070048;28;20210;-44
2023/10/12 01:55:23;;;;;;;8.83;6.37;;;;;;;11.38;87.27;95445.56;5071523;28;20190;-43
2023/10/12 01:57:53;;;;;;;13.77;5.97;;;;;;;11.31;87.69;95437.56;5065918;28;20553;-44
2023/10/12 02:00:25;;;;;;;10.70;5.93;;;;;;;11.30;87.74;95449.56;5070110;28;20233;-45
2023/10/12 02:03:01;;;;;;;10.50;5.50;;;;;;;11.27;87.59;95449.81;5070121;28;20194;-44
2023/10/12 02:05:30;;;;;;;7.40;5.50;;;;;;;11.28;87.64;95456.56;5071461;28;20544;-43
2023/10/12 02:08:05;;;;;;;10.23;6.13;;;;;;;11.31;87.84;95458.03;5070058;28;20273;-44
2023/10/12 02:10:41;;;;;;;8.60;5.30;;;;;;;11.22;87.90;95451.91;5074070;28;20227;-43
2023/10/12 02:13:10;;;;;;;8.53;5.67;;;;;;;11.19;88.02;95454.75;5090108;28;20225;-43
2023/10/12 02:15:38;;;;;;;7.57;5.33;;;;;;;11.16;88.21;95451.63;5089407;28;20222;-43
2023/10/12 02:18:14;;;;;;;5.93;5.07;;;;;;;11.15;88.38;95455.13;5079140;28;20680;-43
2023/10/12 02:21:06;;;;;;;6.77;5.37;;;;;;;11.12;88.06;95451.03;5070014;28;20667;-42
2023/10/12 02:23:36;;;;;;;8.97;5.50;;;;;;;11.13;88.26;95451.84;5068913;28;20273;-44
2023/10/12 02:26:07;;;;;;;8.07;5.30;;;;;;;11.10;88.17;95455.47;5070010;28;20193;-44
2023/10/12 02:28:37;;;;;;;7.03;5.40;;;;;;;11.07;88.21;95455.72;5079205;28;20189;-43
2023/10/12 02:31:05;;;;;;;8.00;5.00;;;;;;;11.08;88.34;95454.78;5089701;28;20660;-42
2023/10/12 02:33:36;;;;;;;8.87;5.43;;;;;;;11.10;88.25;95449.56;5090098;28;20228;-42
2023/10/12 02:36:06;;;;;;;8.03;5.40;;;;;;;11.16;88.52;95449.84;5090309;28;20197;-43
2023/10/12 02:38:35;;;;;;;12.00;6.10;;;;;;;11.14;88.27;95446.63;5086345;28;20190;-44
2023/10/12 02:41:03;;;;;;;5.50;4.77;;;;;;;11.13;88.34;95454.41;5069763;28;20198;-43
2023/10/12 02:43:32;;;;;;;7.97;5.30;;;;;;;11.10;88.37;95454.66;5069810;28;20259;-43
2023/10/12 02:46:06;;;;;;;7.73;4.70;;;;;;;11.06;88.42;95451.53;5073220;28;20190;-44
2023/10/12 02:48:36;;;;;;;11.63;5.40;;;;;;;10.98;88.66;95446.22;5089867;28;20193;-44
2023/10/12 02:51:06;;;;;;;7.43;4.70;;;;;;;10.89;88.86;95446.94;5089714;28;20645;-44
2023/10/12 02:53:39;;;;;;;6.73;5.00;;;;;;;10.89;88.82;95450.31;5079362;28;20209;-43
2023/10/12 02:56:06;;;;;;;5.67;4.80;;;;;;;10.87;89.05;95448.78;5069533;28;20285;-45
2023/10/12 02:58:33;;;;;;;5.50;4.80;;;;;;;10.64;88.90;95412.22;5070237;28;20269;-44
2023/10/12 03:01:12;;;;;;;6.80;5.67;;;;;;;10.83;88.88;95432.88;5082418;28;20754;-44
2023/10/12 03:03:39;;;;;;;5.07;4.50;;;;;;;10.89;88.92;95440.06;5089527;28;20574;-43
2023/10/12 03:06:08;;;;;;;6.27;5.50;;;;;;;10.89;89.00;95436.72;5089875;28;20186;-42
2023/10/12 03:09:01;;;;;;;10.43;5.53;;;;;;;10.85;88.94;95437.88;5089906;28;20199;-43
2023/10/12 03:11:28;;;;;;;6.73;5.20;;;;;;;10.82;89.30;95433.81;5078574;28;20641;-43
2023/10/12 03:13:59;;;;;;;9.57;5.67;;;;;;;10.84;89.04;95443.91;5069477;28;20252;-41
2023/10/12 03:16:32;;;;;;;7.00;5.20;;;;;;;10.85;89.11;95436.13;5071176;28;20190;-42
2023/10/12 03:19:00;;;;;;;5.27;4.77;;;;;;;10.84;89.21;95437.06;5069284;28;20818;-43
2023/10/12 03:21:33;;;;;;;12.70;4.90;;;;;;;10.59;89.10;95397.25;5070048;28;20661;-41
2023/10/12 03:24:03;;;;;;;9.83;4.60;;;;;;;10.76;89.34;95432.53;5069496;28;20259;-42
2023/10/12 03:26:32;;;;;;;6.80;4.90;;;;;;;10.72;89.13;95428.59;5069006;28;20240;-43
2023/10/12 03:29:08;;;;;;;6.30;4.97;;;;;;;10.61;89.16;95408.16;5069569;28;20277;-44
2023/10/12 03:31:40;;;;;;;6.07;5.00;;;;;;;10.69;89.38;95428.03;5070206;28;20190;-44
2023/10/12 03:34:16;;;;;;;7.13;4.70;;;;;;;10.68;89.48;95432.34;5090943;28;20209;-46
2023/10/12 03:36:47;;;;;;;6.67;4.70;;;;;;;10.65;89.54;95435.13;5073509;28;20242;-43
2023/10/12 03:39:27;;;;;;;5.20;4.53;;;;;;;10.64;89.53;95430.13;5073289;28;20190;-43
2023/10/12 03:42:10;;;;;;;6.87;5.30;;;;;;;10.61;89.84;95432.94;5082201;28;20186;-44
2023/10/12 03:44:48;;;;;;;9.43;4.90;;;;;;;10.49;89.92;95419.34;5073495;28;20205;-42
2023/10/12 03:47:23;;;;;;;12.60;5.57;;;;;;;10.53;89.75;95433.50;5073222;28;20217;-43
2023/10/12 03:50:05;;;;;;;7.67;5.73;;;;;;;10.55;90.01;95447.00;5072787;28;20196;-44
2023/10/12 03:52:39;;;;;;;7.27;5.60;;;;;;;10.53;89.79;95447.16;5082953;28;20274;-45
2023/10/12 03:58:00;;;;;;;8.03;5.90;;;;;;;10.49;89.99;95440.63;5072414;28;20283;-43
2023/10/12 04:00:32;;;;;;;5.43;4.63;;;;;;;10.51;89.91;95446.44;5072657;28;20363;-44
2023/10/12 04:03:04;;;;;;;10.30;5.50;;;;;;;10.52;89.97;95445.50;5073565;28;20194;-43
2023/10/12 04:05:55;;;;;;;6.07;4.93;;;;;;;10.52;90.08;95444.69;5092464;28;20220;-43
2023/10/12 04:08:46;;;;;;;6.73;5.23;;;;;;;10.38;90.00;95427.03;5092765;28;20186;-45
2023/10/12 04:16:45;;;;;;;8.70;5.27;;;;;;;10.46;90.21;95445.97;5072017;28;20665;-43
2023/10/12 04:19:15;;;;;;;6.97;5.70;;;;;;;10.41;90.36;95445.53;5072252;28;20182;-43
2023/10/12 04:22:05;;;;;;;10.63;6.10;;;;;;;10.44;90.48;95445.28;5073004;28;20198;-43
2023/10/12 04:24:42;;;;;;;7.53;5.40;;;;;;;10.43;90.58;95448.75;5078528;28;20626;-43
2023/10/12 04:30:01;;;;;;;7.43;6.13;;;;;;;10.40;90.50;95440.50;5092200;28;20213;-42
2023/10/12 04:32:52;;;;;;;12.50;5.77;;;;;;;10.39;90.71;95438.88;5073348;28;20197;-44
2023/10/12 04:35:27;;;;;;;14.13;5.93;;;;;;;10.32;90.68;95428.34;5072117;28;20194;-44
2023/10/12 04:37:56;;;;;;;11.20;6.53;;;;;;;10.34;90.60;95443.56;5071969;28;20197;-44
2023/10/12 04:40:36;;;;;;;8.87;6.47;;;;;;;10.35;90.70;95438.31;5071792;28;20636;-45
2023/10/12 04:43:06;;;;;;;10.30;6.87;;;;;;;10.31;90.81;95436.91;5073126;28;20229;-42
2023/10/12 04:48:21;;;;;;;9.43;6.67;;;;;;;10.36;90.82;95434.00;5071866;28;20225;-43
2023/10/12 04:50:59;;;;;;;11.57;6.33;;;;;;;10.36;90.91;95439.13;5072828;28;20217;-42
2023/10/12 04:53:53;;;;;;;9.50;6.07;;;;;;;10.39;90.93;95437.16;5071553;28;20272;-43
2023/10/12 04:56:18;;;;;;;11.13;7.03;;;;;;;10.43;90.93;95435.16;5072602;28;20193;-45
2023/10/12 04:58:57;;;;;;;22.83;6.83;;;;;;;10.47;90.60;95432.25;5072316;28;20213;-45
2023/10/12 05:01:29;;;;;;;16.80;6.90;;;;;;;10.54;90.33;95440.28;5072444;28;20304;-44
2023/10/12 05:04:08;;;;;;;19.57;6.27;;;;;;;10.61;90.34;95435.47;5071337;28;20292;-44
2023/10/12 05:06:36;;;;;;;19.20;7.73;;;;;;;10.61;90.30;95427.81;5071949;28;20182;-43
2023/10/12 05:09:10;;;;;;;12.87;5.80;;;;;;;10.63;90.17;95437.00;5071192;28;20573;-43
2023/10/12 05:11:38;;;;;;;19.13;6.27;;;;;;;10.61;90.23;95435.47;5071538;28;20197;-44
2023/10/12 05:14:14;;;;;;;11.37;6.80;;;;;;;10.48;90.29;95415.97;5071554;28;20210;-41
2023/10/12 05:16:43;;;;;;;10.97;6.93;;;;;;;10.67;90.25;95442.69;5072473;28;20229;-46
2023/10/12 05:19:11;;;;;;;21.63;6.83;;;;;;;10.52;90.05;95414.00;5072005;28;20686;-42
2023/10/12 05:21:39;;;;;;;20.60;7.37;;;;;;;10.58;89.81;95418.66;5072174;28;20638;-41
2023/10/12 05:24:08;;;;;;;15.23;7.30;;;;;;;10.81;89.92;95442.41;5072285;28;20193;-44
2023/10/12 05:26:35;;;;;;;10.33;6.43;;;;;;;10.94;89.43;95453.31;5072202;28;20182;-43
2023/10/12 05:31:48;;;;;;;16.43;7.47;;;;;;;11.34;88.44;95468.06;5070754;28;20281;-44
2023/10/12 05:37:09;;;;;;;9.97;6.47;;;;;;;11.62;86.65;95481.22;5028266;28;20662;-44
2023/10/12 05:39:46;;;;;;;15.27;7.73;;;;;;;11.72;85.86;95467.50;5028455;28;20214;-42
2023/10/12 05:42:14;;;;;;;11.57;7.53;;;;;;;11.86;85.20;95476.66;5037179;28;20192;-42
2023/10/12 05:44:42;;;;;;;13.53;7.63;;;;;;;11.91;84.47;95479.66;5027244;28;20227;-42
2023/10/12 05:47:12;;;;;;;8.67;6.93;;;;;;;11.97;84.46;95481.72;5033451;28;20204;-43
2023/10/12 05:49:40;;;;;;;20.33;7.70;;;;;;;12.09;83.92;95484.19;5024374;28;20191;-43
2023/10/12 05:52:08;;;;;;;16.03;8.67;;;;;;;12.25;83.34;95484.56;5026603;28;20227;-44
2023/10/12 05:54:38;;;;;;;21.10;10.30;;;;;;;12.38;82.57;95474.06;5027293;28;20235;-43
2023/10/12 05:57:09;;;;;;;23.20;10.33;;;;;;;12.49;81.62;95453.47;5027332;28;20281;-42
2023/10/12 05:59:38;;;;;;;23.47;9.90;;;;;;;12.93;80.19;95475.31;5027352;28;20199;-45
2023/10/12 06:02:05;;;;;;;28.43;10.23;;;;;;;13.16;78.43;95472.50;5027307;28;20235;-43
2023/10/12 06:04:33;;;;;;;22.00;10.73;;;;;;;13.37;77.43;95470.63;5027417;28;20205;-44
2023/10/12 06:07:00;;;;;;;25.57;12.63;;;;;;;13.47;76.77;95476.59;5028524;28;20195;-41
2023/10/12 06:09:35;;;;;;;18.93;12.37;;;;;;;13.54;76.40;95476.84;5027941;28;20199;-43
2023/10/12 06:12:06;;;;;;;15.70;12.47;;;;;;;13.56;76.64;95480.13;5028951;28;20298;-42
2023/10/12 06:14:34;;;;;;;15.57;10.63;;;;;;;13.61;76.50;95477.13;5057872;28;20713;-43
2023/10/12 06:17:02;;;;;;;17.70;10.93;;;;;;;13.70;76.07;95479.69;5070251;28;20271;-44
2023/10/12 06:19:34;;;;;;;15.10;10.40;;;;;;;13.81;75.74;95478.72;5069920;28;20548;-43
2023/10/12 06:22:13;;;;;;;18.00;10.00;;;;;;;13.92;75.22;95473.44;5070433;28;20202;-44
2023/10/12 06:24:41;;;;;;;14.97;9.50;;;;;;;14.14;74.65;95474.03;5071598;28;20669;-44
2023/10/12 06:27:22;;;;;;;15.50;9.00;;;;;;;14.35;73.32;95484.94;5069248;28;20187;-45
2023/10/12 06:29:50;;;;;;;15.77;9.33;;;;;;;14.46;72.53;95478.78;5069737;28;20213;-42
2023/10/12 06:32:18;;;;;;;8.03;7.00;;;;;;;14.42;72.41;95475.72;5069211;28;20198;-43
2023/10/12 06:35:02;;;;;;;22.50;8.23;;;;;;;14.54;72.73;95474.59;5069455;28;20660;-43
2023/10/12 06:45:48;;;;;;;14.30;7.53;;;;;;;15.71;67.87;95489.28;5069036;28;20201;-43
2023/10/12 06:48:33;;;;;;;13.70;7.37;;;;;;;15.91;66.58;95489.94;5069159;28;20181;-43
2023/10/12 06:51:02;;;;;;;14.60;6.50;;;;;;;16.00;67.00;95489.81;5068771;28;20642;-43
2023/10/12 06:53:34;;;;;;;12.00;6.23;;;;;;;16.26;66.35;95491.59;5069351;28;20222;-44
2023/10/12 06:56:15;;;;;;;14.17;7.47;;;;;;;16.55;65.33;95491.28;5067786;28;20684;-49
2023/10/12 06:58:41;;;;;;;7.47;6.10;;;;;;;16.89;63.23;95480.13;5068515;28;20200;-43
2023/10/12 07:01:18;;;;;;;8.13;6.47;;;;;;;17.01;63.38;95481.44;5068466;28;20676;-43
2023/10/12 07:03:47;;;;;;;18.03;7.27;;;;;;;17.29;62.85;95487.97;5069793;28;20284;-43
2023/10/12 07:06:15;;;;;;;11.07;7.50;;;;;;;17.27;61.15;95445.13;5069027;28;20178;-44
2023/10/12 07:08:46;;;;;;;16.13;7.93;;;;;;;17.42;61.28;95479.75;5067970;28;20228;-43
2023/10/12 07:11:14;;;;;;;11.37;7.67;;;;;;;17.39;61.30;95476.66;5068345;28;20201;-44
2023/10/12 07:13:41;;;;;;;12.73;7.37;;;;;;;17.43;60.89;95471.00;5069123;28;20206;-45
2023/10/12 07:16:08;;;;;;;18.17;7.63;;;;;;;17.07;60.93;95439.47;5068793;28;20661;-44
2023/10/12 07:18:36;;;;;;;19.63;8.80;;;;;;;17.45;60.69;95484.59;5068529;28;20214;-43
2023/10/12 07:21:19;;;;;;;14.03;7.03;;;;;;;17.43;60.97;95485.72;5070400;28;20182;-45
2023/10/12 07:23:52;;;;;;;11.47;7.40;;;;;;;17.64;60.13;95491.22;5066758;28;20673;-43
2023/10/12 07:26:19;;;;;;;9.97;7.10;;;;;;;17.62;60.42;95487.19;5068684;28;20183;-43
2023/10/12 07:28:49;;;;;;;11.27;7.90;;;;;;;17.63;59.75;95483.63;5068477;28;20187;-43
2023/10/12 07:31:38;;;;;;;12.10;8.10;;;;;;;17.61;60.47;95481.19;5068650;28;20271;-43
2023/10/12 07:34:05;;;;;;;14.67;8.10;;;;;;;17.74;60.16;95486.72;5068418;28;20665;-43
2023/10/12 07:36:52;;;;;;;7.90;7.03;;;;;;;17.85;59.78;95480.41;5068620;28;20189;-43
2023/10/12 07:39:22;;;;;;;9.17;7.33;;;;;;;17.89;59.61;95484.31;5068384;28;20226;-44
2023/10/12 07:41:56;;;;;;;13.77;7.63;;;;;;;17.68;59.86;95450.31;5068596;28;20197;-44
2023/10/12 07:44:24;;;;;;;13.27;6.90;;;;;;;17.98;59.21;95485.09;5068291;28;20199;-43
2023/10/12 07:46:56;;;;;;;9.33;6.60;;;;;;;18.04;59.05;95479.25;5068097;28;20307;-43
2023/10/12 07:49:37;;;;;;;11.83;7.17;;;;;;;18.23;58.59;95478.09;5065861;28;20206;-44
2023/10/12 07:52:14;;;;;;;12.17;7.20;;;;;;;18.41;58.48;95488.25;5069024;28;20190;-44
2023/10/12 07:54:55;;;;;;;13.30;7.23;;;;;;;18.59;57.58;95481.06;5068431;28;20221;-43
2023/10/12 07:57:24;;;;;;;11.97;7.67;;;;;;;18.64;57.52;95470.19;5069031;28;20222;-44
2023/10/12 07:59:59;;;;;;;11.70;6.90;;;;;;;19.00;56.29;95475.75;5067990;28;20254;-44
2023/10/12 08:03:16;;;;;;;15.33;7.07;;;;;;;19.12;55.56;95474.34;5067881;28;20665;-43
2023/10/12 08:08:17;;;;;;;10.27;7.07;;;;;;;19.42;55.13;95475.31;5065633;28;20186;-42
2023/10/12 08:10:59;;;;;;;11.63;6.60;;;;;;;19.59;54.76;95473.41;5068042;28;20722;-44
2023/10/12 08:13:32;;;;;;;9.77;6.77;;;;;;;19.84;54.39;95471.44;5067742;28;20289;-43
2023/10/12 08:16:03;;;;;;;9.40;7.20;;;;;;;19.99;53.64;95464.50;5067571;28;20198;-44
2023/10/12 08:21:30;;;;;;;13.53;6.67;;;;;;;20.09;52.91;95466.84;4986234;28;20189;-43
2023/10/12 08:24:05;;;;;;;11.23;6.67;;;;;;;20.06;52.83;95462.00;4996748;28;20687;-45
2023/10/12 08:26:47;;;;;;;7.80;5.97;;;;;;;20.12;52.33;95461.31;4993838;28;20228;-43
2023/10/12 08:29:22;;;;;;;11.77;6.70;;;;;;;20.16;52.35;95457.34;4999766;28;20188;-44
2023/10/12 08:31:55;;;;;;;11.33;7.50;;;;;;;20.22;52.59;95456.63;5000954;28;20278;-44
2023/10/12 08:37:18;;;;;;;16.33;7.87;;;;;;;20.39;51.72;95435.69;4993602;28;20192;-44
2023/10/12 08:39:50;;;;;;;13.65;7.82;;;;;;;20.24;51.42;95407.09;4995369;28;20236;-43
2023/10/12 08:42:54;;;;;;;7.77;6.80;;;;;;;20.34;51.89;95441.44;4994090;28;20212;-44
2023/10/12 08:45:24;;;;;;;19.60;7.53;;;;;;;20.26;52.24;95436.31;4979594;28;20185;-44
2023/10/12 08:47:54;;;;;;;10.87;7.17;;;;;;;20.20;52.54;95432.63;4980359;28;20282;-46
2023/10/12 08:53:07;;;;;;;8.03;6.70;;;;;;;20.20;52.60;95429.22;4997057;28;20310;-43
2023/10/12 08:55:36;;;;;;;10.40;7.25;;;;;;;20.24;52.36;95431.28;5001581;28;20224;-44
2023/10/12 08:58:31;;;;;;;12.93;7.07;;;;;;;20.21;52.33;95403.09;5059915;28;20296;-43
2023/10/12 09:01:22;;;;;;;10.20;7.10;;;;;;;20.22;52.31;95416.88;5071183;28;20226;-44
2023/10/12 09:03:53;;;;;;;8.52;6.43;;;;;;;20.00;52.87;95409.00;5070755;28;20285;-45
2023/10/12 09:06:53;;;;;;;13.50;6.40;;;;;;;19.89;53.45;95409.41;5068283;28;20285;-45
2023/10/12 09:11:59;;;;;;;14.80;7.50;;;;;;;19.90;53.47;95400.63;5070645;28;20198;-45
2023/10/12 09:14:32;;;;;;;12.63;6.97;;;;;;;19.88;53.27;95402.63;5072770;28;20217;-45
2023/10/12 09:17:03;;;;;;;9.90;6.30;;;;;;;19.88;52.98;95394.81;5070467;28;20274;-43
2023/10/12 09:19:32;;;;;;;14.60;7.07;;;;;;;19.83;53.25;95398.94;5070071;28;20569;-44
2023/10/12 09:22:03;;;;;;;10.43;7.00;;;;;;;19.80;53.35;95384.53;5072299;28;20716;-43
2023/10/12 09:24:35;;;;;;;12.23;6.73;;;;;;;19.78;53.72;95383.91;5070657;28;20200;-46
2023/10/12 09:27:11;;;;;;;11.57;7.20;;;;;;;19.68;53.65;95355.59;5070458;28;20197;-43
2023/10/12 09:29:57;;;;;;;10.53;6.63;;;;;;;19.83;53.76;95370.41;5070565;28;20186;-44
2023/10/12 09:32:26;;;;;;;15.13;6.97;;;;;;;19.85;53.46;95360.63;5068395;28;20557;-44
2023/10/12 09:35:10;;;;;;;10.43;6.40;;;;;;;19.86;53.57;95357.88;5070111;28;20534;-43
2023/10/12 09:37:45;;;;;;;13.57;7.10;;;;;;;19.93;53.52;95357.94;5070333;28;20213;-43
2023/10/12 09:40:27;;;;;;;11.30;6.15;;;;;;;19.91;53.52;95342.56;5069866;28;20688;-44
2023/10/12 09:43:01;;;;;;;10.10;6.78;;;;;;;19.97;53.63;95338.44;5071447;28;20197;-43
2023/10/12 09:45:39;;;;;;;11.27;6.90;;;;;;;19.52;53.56;95273.53;5077148;28;20194;-44
2023/10/12 09:48:12;;;;;;;10.77;7.18;;;;;;;19.98;53.15;95338.25;5074210;28;20274;-45
2023/10/12 09:50:40;;;;;;;11.65;6.82;;;;;;;19.79;53.33;95313.63;5068666;28;20225;-42
2023/10/12 09:53:22;;;;;;;8.77;6.93;;;;;;;19.88;53.69;95327.34;5069449;28;20198;-44
2023/10/12 09:56:10;;;;;;;12.40;6.78;;;;;;;19.92;53.96;95325.19;5069584;28;20221;-43
2023/10/12 09:58:51;;;;;;;11.80;7.53;;;;;;;20.04;53.64;95316.75;5068007;28;20205;-45
2023/10/12 10:01:45;;;;;;;11.98;6.45;;;;;;;20.08;53.71;95322.41;5069238;28;20235;-44
2023/10/12 10:07:15;;;;;;;11.67;6.53;;;;;;;20.22;53.31;95305.19;5068885;28;20190;-44
2023/10/12 10:09:46;;;;;;;12.57;6.73;;;;;;;20.26;53.00;95301.25;5068574;28;20202;-45
2023/10/12 10:12:15;;;;;;;9.13;5.90;;;;;;;20.32;53.21;95302.28;5070315;28;20198;-44
2023/10/12 10:14:44;;;;;;;9.52;6.40;;;;;;;20.39;52.63;95298.00;5070417;28;20225;-43
2023/10/12 10:17:14;;;;;;;13.98;6.43;;;;;;;20.42;52.57;95298.44;5071564;28;20221;-44
2023/10/12 10:19:44;;;;;;;11.75;6.60;;;;;;;20.54;52.87;95301.38;5072313;28;20625;-45
2023/10/12 10:22:15;;;;;;;12.52;7.43;;;;;;;20.53;52.17;95291.97;5071107;28;20244;-44
2023/10/12 10:24:46;;;;;;;11.13;6.50;;;;;;;20.56;52.44;95299.41;5068882;28;20194;-45
2023/10/12 10:27:15;;;;;;;10.70;7.05;;;;;;;20.58;52.56;95291.41;5069659;28;20198;-44
2023/10/12 10:29:45;;;;;;;10.57;7.03;;;;;;;20.62;52.11;95282.25;5068872;28;20190;-46
2023/10/12 10:32:18;;;;;;;10.73;6.50;;;;;;;20.52;51.74;95252.19;5069174;28;20746;-45
2023/10/12 10:34:46;;;;;;;14.18;5.85;;;;;;;20.60;52.31;95247.88;5069025;28;20221;-44
2023/10/12 10:37:15;;;;;;;10.82;6.60;;;;;;;20.88;52.28;95272.09;5068771;28;20191;-44
2023/10/12 10:39:43;;;;;;;9.27;6.18;;;;;;;21.00;52.46;95270.59;5068615;28;20194;-43
2023/10/12 10:42:10;;;;;;;10.07;6.57;;;;;;;21.04;51.88;95264.03;5071589;28;20273;-44
2023/10/12 10:44:41;;;;;;;7.72;5.50;;;;;;;21.12;51.63;95262.28;5068452;28;20206;-45
2023/10/12 10:47:12;;;;;;;11.38;5.97;;;;;;;21.21;51.66;95264.56;5068314;28;20198;-44
2023/10/12 10:49:45;;;;;;;8.52;6.03;;;;;;;21.29;51.47;95259.22;5068951;28;20243;-44
2023/10/12 10:52:20;;;;;;;12.40;6.28;;;;;;;21.34;51.10;95250.88;5066479;28;20689;-44
2023/10/12 10:54:59;;;;;;;9.23;6.38;;;;;;;21.37;51.05;95244.47;5066682;28;20217;-44
2023/10/12 10:57:31;;;;;;;11.40;5.78;;;;;;;21.44;50.85;95240.13;5068896;28;20311;-45
2023/10/12 10:59:58;;;;;;;10.40;5.95;;;;;;;21.52;50.78;95240.75;5068233;28;20194;-44
2023/10/12 11:02:27;;;;;;;13.32;6.53;;;;;;;21.60;50.37;95224.19;5068388;28;20205;-47
2023/10/12 11:05:00;;;;;;;11.50;5.90;;;;;;;21.61;50.75;95225.78;5068429;28;20194;-45
2023/10/12 11:07:27;;;;;;;11.27;6.32;;;;;;;21.66;50.23;95220.81;5068868;28;20195;-43
2023/10/12 11:10:19;;;;;;;8.40;5.97;;;;;;;21.76;50.40;95217.84;5068114;28;20252;-45
2023/10/12 11:12:45;;;;;;;9.15;5.85;;;;;;;21.85;50.23;95213.25;5068260;28;20209;-43
2023/10/12 11:15:19;;;;;;;11.25;6.47;;;;;;;21.87;50.11;95209.47;5068692;28;20229;-46
2023/10/12 11:17:57;;;;;;;10.93;5.50;;;;;;;21.93;49.96;95206.09;5068847;28;20201;-45
2023/10/12 11:20:38;;;;;;;10.07;5.80;;;;;;;21.94;49.87;95199.91;5067183;28;20657;-45
2023/10/12 11:23:08;;;;;;;17.75;6.38;;;;;;;21.97;49.02;95199.50;5068492;28;20194;-44
2023/10/12 11:25:39;;;;;;;11.13;6.25;;;;;;;21.97;49.36;95198.69;5068077;28;20208;-44
2023/10/12 11:28:19;;;;;;;9.80;6.00;;;;;;;21.98;49.23;95193.31;5068570;28;20277;-44
2023/10/12 11:30:45;;;;;;;10.70;5.38;;;;;;;22.02;49.56;95191.91;5069080;28;20258;-43
2023/10/12 11:33:12;;;;;;;9.85;5.97;;;;;;;22.10;48.83;95177.88;5067045;28;20206;-44
2023/10/12 11:35:44;;;;;;;9.77;5.85;;;;;;;22.15;48.70;95185.13;5070535;28;20221;-46
2023/10/12 11:38:18;;;;;;;8.77;5.57;;;;;;;22.15;49.02;95175.53;5067890;28;20186;-44
2023/10/12 11:40:52;;;;;;;10.90;6.47;;;;;;;22.16;48.79;95179.75;5065786;28;20756;-44
2023/10/12 11:43:19;;;;;;;16.75;6.72;;;;;;;22.16;48.82;95168.53;5068328;28;20197;-44
2023/10/12 11:46:01;;;;;;;10.95;5.75;;;;;;;22.12;48.99;95164.69;5068036;28;20228;-45
2023/10/12 11:48:30;;;;;;;12.00;6.55;;;;;;;22.17;48.86;95165.72;5064762;28;20251;-44
2023/10/12 11:51:04;;;;;;;7.22;5.43;;;;;;;22.24;48.95;95156.13;5068112;28;20191;-44
2023/10/12 11:53:31;;;;;;;11.52;6.13;;;;;;;22.27;47.93;95154.91;5067838;28;20269;-45
2023/10/12 11:56:07;;;;;;;6.22;5.32;;;;;;;22.25;48.22;95154.31;5070511;28;20653;-44
2023/10/12 11:58:35;;;;;;;10.98;5.68;;;;;;;22.22;48.42;95145.06;5071961;28;20194;-43
2023/10/12 12:01:02;;;;;;;18.77;5.72;;;;;;;22.29;47.99;95148.50;5072508;28;20304;-43
2023/10/12 12:03:37;;;;;;;12.38;6.07;;;;;;;22.22;48.75;95131.25;5072676;28;20187;-43
2023/10/12 12:06:18;;;;;;;15.27;6.20;;;;;;;22.33;48.29;95148.91;5068777;28;20193;-44
2023/10/12 12:08:47;;;;;;;12.40;8.07;;;;;;;22.30;48.55;95138.88;5071478;28;20216;-44
2023/10/12 12:11:19;;;;;;;17.20;6.03;;;;;;;22.35;48.48;95144.28;5071697;28;20200;-42
2023/10/12 12:13:48;;;;;;;9.25;5.43;;;;;;;22.29;48.43;95124.25;5071683;28;20233;-44
2023/10/12 12:16:20;;;;;;;11.30;4.88;;;;;;;22.47;48.42;95131.47;5071706;28;20309;-43
2023/10/12 12:18:49;;;;;;;12.40;5.72;;;;;;;22.44;48.28;95135.25;5070926;28;20255;-42
2023/10/12 12:21:28;;;;;;;9.00;5.07;;;;;;;22.42;48.40;95133.88;5071558;28;20194;-43
2023/10/12 12:23:56;;;;;;;10.18;5.15;;;;;;;22.47;48.34;95134.06;5075414;28;20209;-43
2023/10/12 12:26:24;;;;;;;13.73;5.30;;;;;;;22.39;48.33;95116.03;5071425;28;20201;-44
2023/10/12 12:29:03;;;;;;;11.10;5.63;;;;;;;22.54;47.45;95120.03;5071392;28;20190;-43
2023/10/12 12:31:32;;;;;;;10.13;4.90;;;;;;;22.56;47.54;95122.44;5068821;28;20194;-45
2023/10/12 12:33:59;;;;;;;7.25;5.25;;;;;;;22.50;47.72;95118.03;5071392;28;20214;-42
2023/10/12 12:36:29;;;;;;;10.55;5.25;;;;;;;22.52;47.99;95123.84;5071297;28;20222;-44
2023/10/12 12:38:59;;;;;;;11.65;5.88;;;;;;;22.52;47.92;95119.44;5071524;28;20565;-43
2023/10/12 12:41:26;;;;;;;6.65;4.60;;;;;;;22.54;47.68;95120.03;5071102;28;20669;-44
2023/10/12 12:43:58;;;;;;;9.18;4.90;;;;;;;22.65;47.76;95112.59;5071031;28;20202;-43
2023/10/12 12:46:26;;;;;;;6.10;5.00;;;;;;;22.63;47.70;95112.03;5070990;28;20360;-44